createdAt,value
2023-05-05T00:25:46.521Z,8.34
2023-05-05T00:40:38.974Z,10.22
2023-05-05T00:55:31.424Z,9.04
2023-05-05T01:10:26.424Z,9.56
2023-05-05T01:25:34.717Z,7.90
2023-05-05T01:40:31.418Z,7.88
2023-05-05T02:25:38.938Z,9.27
2023-05-05T03:40:01.807Z,9.33
2023-05-05T04:09:47.408Z,7.74
2023-05-05T04:24:41.823Z,7.90
2023-05-05T04:39:33.953Z,9.89
2023-05-05T04:54:25.624Z,7.27
2023-05-05T05:09:18.749Z,5.39
2023-05-05T05:24:12.137Z,5.41
2023-05-05T05:39:06.035Z,6.98
2023-05-05T05:53:59.012Z,7.70
2023-05-05T06:08:54.402Z,7.19
2023-05-05T06:23:46.150Z,5.25
2023-05-05T06:38:38.304Z,6.78
2023-05-05T06:53:32.031Z,8.21
2023-05-05T07:08:27.090Z,4.34
2023-05-05T07:23:20.605Z,5.43
2023-05-05T07:38:13.371Z,3.87
2023-05-05T07:53:13.713Z,6.57
2023-05-05T08:07:58.380Z,4.43
2023-05-05T08:22:51.764Z,3.34
2023-05-05T08:37:46.808Z,5.18
2023-05-05T08:52:45.964Z,6.62
2023-05-05T09:07:43.693Z,4.00
2023-05-05T09:22:41.202Z,3.51
2023-05-05T09:37:39.793Z,3.10
2023-05-05T09:52:34.072Z,4.88
2023-05-05T10:07:28.184Z,3.75
2023-05-05T10:22:20.690Z,4.54
2023-05-05T10:37:13.686Z,9.77
2023-05-05T10:52:13.205Z,2.67
2023-05-05T11:07:14.706Z,5.14
2023-05-05T11:22:04.368Z,2.87
2023-05-05T11:36:58.141Z,2.10
2023-05-05T11:52:06.694Z,3.18
2023-05-05T12:07:06.534Z,4.04
2023-05-05T12:21:58.281Z,2.73
2023-05-05T12:36:52.098Z,3.23
2023-05-05T12:51:52.778Z,2.20
2023-05-05T13:07:14.839Z,1.93
2023-05-05T13:22:11.664Z,1.47
2023-05-05T13:37:21.411Z,2.51
2023-05-05T13:52:09.390Z,2.51
2023-05-05T14:07:05.290Z,2.41
2023-05-05T14:21:59.915Z,2.01
2023-05-05T14:36:50.554Z,3.20
2023-05-05T14:51:39.186Z,1.96
2023-05-05T15:06:29.700Z,2.24
2023-05-05T15:21:22.713Z,2.72
2023-05-05T15:36:09.912Z,5.07
2023-05-05T15:50:59.746Z,5.35
2023-05-05T16:05:51.016Z,5.29
2023-05-05T16:20:43.195Z,7.29
2023-05-05T16:35:35.760Z,7.80
2023-05-05T16:50:28.303Z,7.74
2023-05-05T17:05:21.448Z,7.10
2023-05-05T17:20:13.836Z,9.34
2023-05-05T17:35:06.535Z,4.99
2023-05-05T18:05:08.514Z,4.74
2023-05-05T18:19:56.576Z,6.58
2023-05-05T18:34:48.663Z,4.44
2023-05-05T18:49:41.342Z,5.00
2023-05-05T19:04:33.730Z,7.24
2023-05-05T19:19:26.264Z,6.09
2023-05-05T19:34:18.054Z,4.43
2023-05-05T19:49:09.576Z,6.41
2023-05-05T20:04:01.024Z,5.33
2023-05-05T20:19:10.330Z,4.31
2023-05-05T20:33:55.875Z,4.90
2023-05-05T20:48:50.942Z,3.30
2023-05-05T21:03:41.894Z,4.36
2023-05-05T21:18:34.468Z,6.41
2023-05-05T21:33:26.579Z,7.14
2023-05-05T21:48:17.978Z,4.12
2023-05-05T22:03:13.311Z,6.38
2023-05-05T22:18:09.926Z,6.74
2023-05-05T22:33:00.886Z,7.22
2023-05-05T22:47:52.535Z,5.36
2023-05-05T23:02:45.471Z,6.46
2023-05-05T23:17:37.652Z,6.01
2023-05-05T23:32:29.115Z,7.86
2023-05-05T23:47:22.081Z,7.72
